Airfield :
LOGIN :

Register | Disclaimer

   EN    FR    IT 

 










Legend :    VFR   Marginal VFR   IFR   Intensive IFR   Very Intensive IFR
Visi :
Ceiling :
>= 8 km
>= 3000ft
5 to 8 km
1000 to 3000 ft
1500m to 5 km
500 to 1000 ft
800 to 1500m
200 to 500 ft
< 800m
< 200 ft
Symbols :   Thunderstorms  Fog  Heavy snow  Heavy precipitations  Wind > 20 kt
SIGMETs :     Misc.  Thunderstorms  Icing  Turbulence  Mountain Waves  Volcanic Ashes







- Airport Elevation : 359 ft
- IATA code : BVA
- Download approach charts


LFOB - Beauvais

CURRENT METAR :
  • 210730Z AUTO 00000KT 0200 0150 R30/0200N R12/0400N FG VV/// 00/00 Q1027 BECMG CAVOK

EXPIRED METARs :
  • 210700Z AUTO 00000KT 0250 0200 R30/0400D R12/0325N FZFG VV/// M00/M00 Q1027 BECMG CAVOK
  • 210630Z AUTO 00000KT 0400 0350 R30/0500D R12/0400N FG SCT003 OVC019 00/00 Q1026 TEMPO VV/// BECMG 9999 NSW
  • 210600Z AUTO 00000KT 0300 0200 R30/0275N R12/0750U FG VV/// 00/M00 Q1026 TEMPO 0400 FG
  • 210530Z AUTO 00000KT 0400 0300 R30/0500D R12/0500D FG FEW005 SCT024 02/01 Q1026 TEMPO VV///
  • 210500Z AUTO 14002KT 2100 0500 R30/0550D R12/P2000 BCFG BKN027 02/02 Q1026 TEMPO 0300 BECMG VV///
  • 210430Z AUTO VRB02KT 3800 BR NSC 03/03 Q1026 TEMPO 0300 BECMG VV///

TAF TAF LFOB
Valid from the 21 at 06:00 until the 22 at 06:00 UTC


210500Z 2106/2206 VRB02KT 3000 BR SCT030
TEMPO 2106/2108 0300 FG VV///
BECMG 2108/2110 CAVOK
BECMG 2122/2124 4000 BR
PROB40
TEMPO 2200/2206 0800 BCFG
ATIS : +33 3 44 11 49 28
No reported NOTAMs for that airfield.



MET'MAP, your aeronautical weather chart ! - Copyright ORBIFLY December 2007 - Disclaimer

ORBIFLY MET'MAP TEAM :

Programming & Development : Alexandra Zaïnal
Concept & Development : Baudouin d'Aumeries
Co-Development & Prog : Marc-Olivier Méhu
Technical & hardware support : Manuel Goepfert

Contact : metmap@orbifly.com




SOURCES & CREDITS :

   NOAA